Time;durP1;ratioP1;P1;durP2;ratioP2;P2;SDS_P1;SDS_P2;PMS_P1;PMS_P2;Temp;Humidity;BMP_temperature;BMP_pressure;BME280_temperature;BME280_humidity;BME280_pressure;Samples;Min_cycle;Max_cycle;Signal;HPM_P1;HPM_P2
2023/08/23 00:01:16;;;;;;;26.95;14.20;;;;;;;;;;5005812;28;20539;-74
2023/08/23 00:03:42;;;;;;;23.67;13.15;;;;;;;;;;5006389;28;20040;-74
2023/08/23 00:06:09;;;;;;;26.15;13.50;;;;;;;;;;5006773;28;20022;-74
2023/08/23 00:08:35;;;;;;;25.55;13.57;;;;;;;;;;5007673;28;20439;-71
2023/08/23 00:11:04;;;;;;;28.63;13.80;;;;;;;;;;4994399;28;20298;-74
2023/08/23 00:13:30;;;;;;;22.33;13.38;;;;;;;;;;5012180;28;20102;-74
2023/08/23 00:15:56;;;;;;;28.70;14.60;;;;;;;;;;5012855;28;20050;-74
2023/08/23 00:18:22;;;;;;;33.47;15.43;;;;;;;;;;4993417;28;20033;-74
2023/08/23 00:20:48;;;;;;;29.20;15.15;;;;;;;;;;5009186;28;20601;-74
2023/08/23 00:23:14;;;;;;;27.95;14.85;;;;;;;;;;4990398;28;20037;-73
2023/08/23 00:25:41;;;;;;;24.95;14.07;;;;;;;;;;5005623;28;20123;-74
2023/08/23 00:28:07;;;;;;;27.20;14.77;;;;;;;;;;4995926;28;20043;-73
2023/08/23 00:30:33;;;;;;;31.42;14.70;;;;;;;;;;5006962;28;20029;-74
2023/08/23 00:32:59;;;;;;;27.77;15.55;;;;;;;;;;5007361;28;20065;-74
2023/08/23 00:35:25;;;;;;;36.90;15.82;;;;;;;;;;4974263;28;20030;-73
2023/08/23 00:37:51;;;;;;;18.83;12.45;;;;;;;;;;4993513;28;20048;-73
2023/08/23 00:40:20;;;;;;;25.25;11.27;;;;;;;;;;4989593;28;20136;-74
2023/08/23 00:42:46;;;;;;;16.10;9.85;;;;;;;;;;5005246;28;20042;-74
2023/08/23 00:45:12;;;;;;;13.75;7.70;;;;;;;;;;5005594;28;20041;-74
2023/08/23 00:47:39;;;;;;;11.82;7.60;;;;;;;;;;4992663;28;20033;-75
2023/08/23 00:50:06;;;;;;;7.35;5.78;;;;;;;;;;5015723;28;20033;-74
2023/08/23 00:52:33;;;;;;;8.10;5.97;;;;;;;;;;4992300;28;20041;-74
2023/08/23 00:54:59;;;;;;;9.57;5.78;;;;;;;;;;4993752;28;20033;-74
2023/08/23 00:57:25;;;;;;;9.55;6.93;;;;;;;;;;5011415;28;20038;-74
2023/08/23 00:59:52;;;;;;;15.82;8.48;;;;;;;;;;4974645;28;20034;-74
2023/08/23 01:02:18;;;;;;;16.20;8.57;;;;;;;;;;4992907;28;20053;-74
2023/08/23 01:04:44;;;;;;;16.25;9.05;;;;;;;;;;4978304;28;20030;-74
2023/08/23 01:07:18;;;;;;;17.27;10.07;;;;;;;;;;5007275;28;20092;-74
2023/08/23 01:10:05;;;;;;;13.00;8.93;;;;;;;;;;5004064;28;20440;-74
2023/08/23 01:12:42;;;;;;;18.55;9.77;;;;;;;;;;5009308;28;20117;-74
2023/08/23 01:15:10;;;;;;;20.77;10.18;;;;;;;;;;5007064;28;20034;-74
2023/08/23 01:17:41;;;;;;;18.60;10.55;;;;;;;;;;4990833;28;20586;-75
2023/08/23 01:20:07;;;;;;;;;;;;;;;;;;5008702;28;20349;-74
2023/08/23 01:22:36;;;;;;;16.90;9.10;;;;;;;;;;4999143;28;19921;-73
2023/08/23 01:25:02;;;;;;;18.45;10.75;;;;;;;;;;5004010;28;20038;-73
2023/08/23 01:27:28;;;;;;;19.17;11.45;;;;;;;;;;4992462;28;20031;-73
2023/08/23 01:29:54;;;;;;;16.48;10.25;;;;;;;;;;5006521;28;20035;-73
2023/08/23 01:32:20;;;;;;;24.10;12.95;;;;;;;;;;5002891;28;20033;-74
2023/08/23 01:34:52;;;;;;;21.20;11.43;;;;;;;;;;5004860;28;20049;-72
2023/08/23 01:37:20;;;;;;;24.05;10.85;;;;;;;;;;5003624;28;20105;-73
2023/08/23 01:39:47;;;;;;;18.27;10.68;;;;;;;;;;4988174;28;20081;-73
2023/08/23 01:42:13;;;;;;;20.00;10.25;;;;;;;;;;4974588;28;20103;-74
2023/08/23 01:44:43;;;;;;;18.58;12.13;;;;;;;;;;4991667;28;20024;-74
2023/08/23 01:47:09;;;;;;;24.15;11.85;;;;;;;;;;4992060;28;20101;-74
2023/08/23 01:49:35;;;;;;;24.27;13.10;;;;;;;;;;4988376;28;20041;-74
2023/08/23 01:52:02;;;;;;;23.20;13.85;;;;;;;;;;5003091;28;20104;-75
2023/08/23 01:54:28;;;;;;;23.10;12.90;;;;;;;;;;5004281;28;20041;-74
2023/08/23 01:56:54;;;;;;;24.90;12.68;;;;;;;;;;4972157;28;21190;-74
2023/08/23 01:59:20;;;;;;;27.20;12.73;;;;;;;;;;4987724;28;20033;-74
2023/08/23 02:01:47;;;;;;;21.38;12.20;;;;;;;;;;5004820;28;20058;-72
2023/08/23 02:04:14;;;;;;;26.73;12.93;;;;;;;;;;4990621;28;20072;-73
2023/08/23 02:06:40;;;;;;;26.52;13.25;;;;;;;;;;5006902;28;20026;-74
2023/08/23 02:09:06;;;;;;;25.50;12.85;;;;;;;;;;5004300;28;20141;-73
2023/08/23 02:11:34;;;;;;;20.80;11.38;;;;;;;;;;4989728;28;20038;-74
2023/08/23 02:14:00;;;;;;;21.02;11.93;;;;;;;;;;5007274;28;20025;-74
2023/08/23 02:16:30;;;;;;;20.48;11.85;;;;;;;;;;4974698;28;20122;-74
2023/08/23 02:18:56;;;;;;;19.20;12.38;;;;;;;;;;4988663;28;20624;-74
2023/08/23 02:21:23;;;;;;;22.35;12.00;;;;;;;;;;4972956;28;20041;-74
2023/08/23 02:23:50;;;;;;;22.50;12.52;;;;;;;;;;5003982;28;20443;-74
2023/08/23 02:26:17;;;;;;;30.23;13.98;;;;;;;;;;5007994;28;20046;-74
2023/08/23 02:28:43;;;;;;;27.02;13.77;;;;;;;;;;4976441;28;20048;-74
2023/08/23 02:31:09;;;;;;;32.30;15.50;;;;;;;;;;4999887;28;20118;-75
2023/08/23 02:33:35;;;;;;;31.95;16.80;;;;;;;;;;4987881;28;20661;-74
2023/08/23 02:36:01;;;;;;;35.45;17.83;;;;;;;;;;5004359;28;20030;-75
2023/08/23 02:38:27;;;;;;;32.40;17.25;;;;;;;;;;4987908;28;20073;-74
2023/08/23 02:40:57;;;;;;;31.63;15.85;;;;;;;;;;5004833;28;20115;-74
2023/08/23 02:43:24;;;;;;;27.48;16.30;;;;;;;;;;4990994;28;20116;-73
2023/08/23 02:45:51;;;;;;;36.45;17.60;;;;;;;;;;5000901;28;20104;-74
2023/08/23 02:48:17;;;;;;;35.60;18.08;;;;;;;;;;5005972;28;20026;-73
2023/08/23 02:50:44;;;;;;;37.53;18.08;;;;;;;;;;4983536;28;20057;-75
2023/08/23 02:53:11;;;;;;;36.00;18.23;;;;;;;;;;5006353;28;20909;-75
2023/08/23 02:55:37;;;;;;;37.55;17.85;;;;;;;;;;5001041;28;20112;-75
2023/08/23 02:58:04;;;;;;;43.70;20.17;;;;;;;;;;4989127;28;20048;-74
2023/08/23 03:00:31;;;;;;;55.38;22.35;;;;;;;;;;4988180;28;20030;-75
2023/08/23 03:02:58;;;;;;;47.13;23.15;;;;;;;;;;4987509;28;20033;-75
2023/08/23 03:05:25;;;;;;;48.25;23.60;;;;;;;;;;4979380;28;20026;-75
2023/08/23 03:07:51;;;;;;;49.28;23.58;;;;;;;;;;5002484;28;20030;-74
2023/08/23 03:10:17;;;;;;;50.72;23.65;;;;;;;;;;5005837;28;20113;-74
2023/08/23 03:12:43;;;;;;;51.30;24.60;;;;;;;;;;4992440;28;20034;-74
2023/08/23 03:15:09;;;;;;;59.72;25.98;;;;;;;;;;4984020;28;20142;-73
2023/08/23 03:17:35;;;;;;;62.33;27.08;;;;;;;;;;4996056;28;20042;-74
2023/08/23 03:20:03;;;;;;;54.50;25.50;;;;;;;;;;4972875;28;20046;-74
2023/08/23 03:22:31;;;;;;;61.50;27.20;;;;;;;;;;4985610;28;20023;-73
2023/08/23 03:24:58;;;;;;;62.33;27.20;;;;;;;;;;4996340;28;20061;-74
2023/08/23 03:27:24;;;;;;;61.35;27.70;;;;;;;;;;4991904;28;20037;-76
2023/08/23 03:29:51;;;;;;;72.93;29.70;;;;;;;;;;5006400;28;20029;-76
2023/08/23 03:32:19;;;;;;;62.42;29.77;;;;;;;;;;5003192;28;20022;-75
2023/08/23 03:34:46;;;;;;;66.78;29.23;;;;;;;;;;5006687;28;20042;-74
2023/08/23 03:37:12;;;;;;;69.93;30.73;;;;;;;;;;4984552;28;20604;-75
2023/08/23 03:39:39;;;;;;;75.72;30.40;;;;;;;;;;4988041;28;20038;-75
2023/08/23 03:42:05;;;;;;;71.45;31.33;;;;;;;;;;4982945;28;20124;-74
2023/08/23 03:44:32;;;;;;;77.80;33.28;;;;;;;;;;4993692;28;20129;-74
2023/08/23 03:46:58;;;;;;;73.15;31.95;;;;;;;;;;4989830;28;20475;-75
2023/08/23 03:49:24;;;;;;;82.53;32.95;;;;;;;;;;5007528;28;20028;-74
2023/08/23 03:51:50;;;;;;;70.85;32.60;;;;;;;;;;4999201;28;20046;-74
2023/08/23 03:54:20;;;;;;;72.43;33.75;;;;;;;;;;5009158;28;20048;-75
2023/08/23 03:56:46;;;;;;;79.30;33.92;;;;;;;;;;4990690;28;20064;-74
2023/08/23 03:59:13;;;;;;;72.78;32.53;;;;;;;;;;5007542;28;20117;-74
2023/08/23 04:01:39;;;;;;;74.70;33.33;;;;;;;;;;4989565;28;20033;-74
2023/08/23 04:04:05;;;;;;;73.50;34.53;;;;;;;;;;5003293;28;20038;-72
2023/08/23 04:06:32;;;;;;;76.65;34.28;;;;;;;;;;4976699;28;20093;-73
2023/08/23 04:08:58;;;;;;;86.35;36.50;;;;;;;;;;5012111;28;20053;-73
2023/08/23 04:11:25;;;;;;;83.50;35.40;;;;;;;;;;5011386;28;20025;-74
2023/08/23 04:13:51;;;;;;;88.85;36.45;;;;;;;;;;4994360;28;20076;-75
2023/08/23 04:16:18;;;;;;;87.10;37.13;;;;;;;;;;5009193;28;20411;-75
2023/08/23 04:18:44;;;;;;;91.75;36.95;;;;;;;;;;4991002;28;20192;-75
2023/08/23 04:21:11;;;;;;;90.07;38.63;;;;;;;;;;4992891;28;20050;-75
2023/08/23 04:23:38;;;;;;;83.50;36.88;;;;;;;;;;5004969;28;20420;-75
2023/08/23 04:26:04;;;;;;;91.80;37.30;;;;;;;;;;5010478;28;20473;-74
2023/08/23 04:28:30;;;;;;;89.57;38.03;;;;;;;;;;5004287;28;20664;-77
2023/08/23 04:31:02;;;;;;;89.55;39.78;;;;;;;;;;5000044;28;20046;-74
2023/08/23 04:33:36;;;;;;;86.85;37.92;;;;;;;;;;4991226;28;20041;-75
2023/08/23 04:36:04;;;;;;;87.05;39.75;;;;;;;;;;4989011;28;20068;-75
2023/08/23 04:38:30;;;;;;;84.70;38.60;;;;;;;;;;5008590;28;20073;-75
2023/08/23 04:41:15;;;;;;;87.68;40.88;;;;;;;;;;4992717;28;20058;-74
2023/08/23 04:43:41;;;;;;;91.28;38.67;;;;;;;;;;4959622;28;20084;-72
2023/08/23 04:46:07;;;;;;;89.07;40.60;;;;;;;;;;5005500;28;20025;-73
2023/08/23 04:48:34;;;;;;;85.45;38.97;;;;;;;;;;4986720;28;20030;-74
2023/08/23 04:51:08;;;;;;;91.80;38.92;;;;;;;;;;5000677;28;20038;-75
2023/08/23 04:53:34;;;;;;;92.88;40.67;;;;;;;;;;5008971;28;20037;-75
2023/08/23 04:56:19;;;;;;;95.45;39.97;;;;;;;;;;4975857;28;20038;-75
2023/08/23 04:58:45;;;;;;;98.15;41.00;;;;;;;;;;4969580;28;20033;-74
2023/08/23 05:01:11;;;;;;;94.05;42.50;;;;;;;;;;5010000;28;20029;-74
2023/08/23 05:03:41;;;;;;;101.65;42.90;;;;;;;;;;4991037;28;20096;-75
2023/08/23 05:06:07;;;;;;;94.75;41.97;;;;;;;;;;4959509;28;20021;-75
2023/08/23 05:08:35;;;;;;;110.93;41.95;;;;;;;;;;5006931;28;20038;-74
2023/08/23 05:11:10;;;;;;;98.28;40.63;;;;;;;;;;4989660;28;20491;-75
2023/08/23 05:13:36;;;;;;;95.63;42.08;;;;;;;;;;5004991;28;20061;-74
2023/08/23 05:16:03;;;;;;;91.80;40.88;;;;;;;;;;5007878;28;20587;-75
2023/08/23 05:18:29;;;;;;;96.50;40.72;;;;;;;;;;4971855;28;20038;-75
2023/08/23 05:20:57;;;;;;;88.40;40.08;;;;;;;;;;4991410;28;20030;-75
2023/08/23 05:23:23;;;;;;;83.95;39.33;;;;;;;;;;4982995;28;20045;-75
2023/08/23 05:25:51;;;;;;;75.45;36.70;;;;;;;;;;4986313;28;20143;-74
2023/08/23 05:28:19;;;;;;;60.72;33.13;;;;;;;;;;4993115;28;20022;-75
2023/08/23 05:30:45;;;;;;;53.13;30.10;;;;;;;;;;4994983;28;20026;-75
2023/08/23 05:33:16;;;;;;;49.08;25.92;;;;;;;;;;4995311;28;20041;-75
2023/08/23 05:35:44;;;;;;;43.30;23.25;;;;;;;;;;5009586;28;20144;-75
2023/08/23 05:38:11;;;;;;;34.72;21.00;;;;;;;;;;4990124;28;20535;-75
2023/08/23 05:40:38;;;;;;;33.33;20.20;;;;;;;;;;4990482;28;20038;-75
2023/08/23 05:43:08;;;;;;;24.38;17.17;;;;;;;;;;5005261;28;20572;-76
2023/08/23 05:45:36;;;;;;;27.20;14.95;;;;;;;;;;5006991;28;20085;-75
2023/08/23 05:48:02;;;;;;;27.08;15.00;;;;;;;;;;4991913;28;20034;-75
2023/08/23 05:50:28;;;;;;;21.77;14.55;;;;;;;;;;5006031;28;20119;-76
2023/08/23 05:52:54;;;;;;;21.90;13.13;;;;;;;;;;5005551;28;20029;-75
2023/08/23 05:55:20;;;;;;;20.15;12.57;;;;;;;;;;5006136;28;20037;-75
2023/08/23 05:57:47;;;;;;;17.98;12.40;;;;;;;;;;5002764;28;20049;-75
2023/08/23 06:00:14;;;;;;;20.75;12.82;;;;;;;;;;4991128;28;20030;-74
2023/08/23 06:02:43;;;;;;;18.52;11.60;;;;;;;;;;5003869;28;20036;-75
2023/08/23 06:05:13;;;;;;;22.35;11.68;;;;;;;;;;4988888;28;20038;-76
2023/08/23 06:07:39;;;;;;;;;;;;;;;;;;5008221;28;20022;-78
2023/08/23 06:10:06;;;;;;;21.10;10.70;;;;;;;;;;5016947;28;19976;-75
2023/08/23 06:12:32;;;;;;;19.98;11.23;;;;;;;;;;4996158;28;20034;-77
2023/08/23 06:14:58;;;;;;;35.75;14.30;;;;;;;;;;4994485;28;20034;-74
2023/08/23 06:17:26;;;;;;;20.08;10.00;;;;;;;;;;5009112;28;20343;-75
2023/08/23 06:19:52;;;;;;;17.90;9.20;;;;;;;;;;5012017;28;20038;-75
2023/08/23 06:22:19;;;;;;;16.58;8.98;;;;;;;;;;5010003;28;20038;-76
2023/08/23 06:24:45;;;;;;;20.52;9.05;;;;;;;;;;5011834;28;20018;-75
2023/08/23 06:27:11;;;;;;;22.02;9.35;;;;;;;;;;4994821;28;20123;-75
2023/08/23 06:29:41;;;;;;;17.90;8.43;;;;;;;;;;5008436;28;20026;-76
2023/08/23 06:32:07;;;;;;;13.30;8.23;;;;;;;;;;5003100;28;20030;-75
2023/08/23 06:34:34;;;;;;;20.50;8.77;;;;;;;;;;5009129;28;20071;-76
2023/08/23 06:37:00;;;;;;;16.20;9.40;;;;;;;;;;4994356;28;20037;-75
2023/08/23 06:39:27;;;;;;;22.40;9.68;;;;;;;;;;4993744;28;20034;-75
2023/08/23 06:41:53;;;;;;;24.42;9.30;;;;;;;;;;5008253;28;20041;-75
2023/08/23 06:44:19;;;;;;;18.48;10.38;;;;;;;;;;5008214;28;20133;-78
2023/08/23 06:46:45;;;;;;;18.10;11.27;;;;;;;;;;5011299;28;20407;-75
2023/08/23 06:49:12;;;;;;;21.17;11.50;;;;;;;;;;5012746;28;20032;-74
2023/08/23 06:51:38;;;;;;;23.10;11.20;;;;;;;;;;5009271;28;20464;-75
2023/08/23 06:54:04;;;;;;;22.52;12.30;;;;;;;;;;5007470;28;20034;-76
2023/08/23 06:56:30;;;;;;;21.77;12.57;;;;;;;;;;4994876;28;20049;-75
2023/08/23 06:58:57;;;;;;;21.50;13.65;;;;;;;;;;5014523;28;20042;-74
2023/08/23 07:01:23;;;;;;;26.17;13.75;;;;;;;;;;5012448;28;20060;-76
2023/08/23 07:03:49;;;;;;;24.67;14.48;;;;;;;;;;5010866;28;20042;-76
2023/08/23 07:06:15;;;;;;;23.08;13.38;;;;;;;;;;5010733;28;20052;-75
2023/08/23 07:08:42;;;;;;;25.88;13.55;;;;;;;;;;5010298;28;20032;-75
2023/08/23 07:11:08;;;;;;;23.98;12.70;;;;;;;;;;5008797;28;20032;-75
2023/08/23 07:13:39;;;;;;;19.63;12.00;;;;;;;;;;4993224;28;20042;-75
2023/08/23 07:16:05;;;;;;;19.67;11.43;;;;;;;;;;5011034;28;20038;-75
2023/08/23 07:18:31;;;;;;;23.85;11.70;;;;;;;;;;4994635;28;20034;-74
2023/08/23 07:20:58;;;;;;;21.35;12.10;;;;;;;;;;4995754;28;20018;-74
2023/08/23 07:23:25;;;;;;;21.60;12.27;;;;;;;;;;4996734;28;20037;-74
2023/08/23 07:25:51;;;;;;;24.15;13.50;;;;;;;;;;4996923;28;20072;-73
2023/08/23 07:28:17;;;;;;;19.60;12.70;;;;;;;;;;5014997;28;20510;-74
2023/08/23 07:30:50;;;;;;;24.20;12.80;;;;;;;;;;5000892;28;20025;-74
2023/08/23 07:33:16;;;;;;;24.98;12.90;;;;;;;;;;5021192;28;20033;-76
2023/08/23 07:35:42;;;;;;;27.17;14.13;;;;;;;;;;5003414;28;20149;-73
2023/08/23 07:38:09;;;;;;;20.20;13.68;;;;;;;;;;5005614;28;20327;-75
2023/08/23 07:40:38;;;;;;;23.95;14.38;;;;;;;;;;5002395;28;20146;-74
2023/08/23 07:43:05;;;;;;;26.02;14.73;;;;;;;;;;5016189;28;20042;-75
2023/08/23 07:45:32;;;;;;;28.95;15.95;;;;;;;;;;4997390;28;20058;-75
2023/08/23 07:47:58;;;;;;;25.33;15.55;;;;;;;;;;5014999;28;20041;-74
2023/08/23 07:50:25;;;;;;;24.98;15.80;;;;;;;;;;5013023;28;20038;-75
2023/08/23 07:52:51;;;;;;;30.10;16.80;;;;;;;;;;5013535;28;20046;-75
2023/08/23 07:55:17;;;;;;;25.40;15.20;;;;;;;;;;5012222;28;20109;-75
2023/08/23 07:57:43;;;;;;;30.48;17.92;;;;;;;;;;5014946;28;20064;-75
2023/08/23 08:00:09;;;;;;;29.25;16.90;;;;;;;;;;5013442;28;20034;-75
2023/08/23 08:02:35;;;;;;;26.98;16.65;;;;;;;;;;4980599;28;20042;-75
2023/08/23 08:05:02;;;;;;;29.27;15.95;;;;;;;;;;5013555;28;20130;-74
2023/08/23 08:07:29;;;;;;;23.90;14.88;;;;;;;;;;4996159;28;20191;-75
2023/08/23 08:09:55;;;;;;;21.58;14.43;;;;;;;;;;4984029;28;20046;-74
2023/08/23 08:12:21;;;;;;;22.98;13.65;;;;;;;;;;5018653;28;20041;-76
2023/08/23 08:14:47;;;;;;;26.45;14.00;;;;;;;;;;5020276;28;20191;-75
2023/08/23 08:17:13;;;;;;;36.88;13.23;;;;;;;;;;5020293;28;20045;-75
2023/08/23 08:19:39;;;;;;;20.15;12.70;;;;;;;;;;5020474;28;20040;-76
2023/08/23 08:22:06;;;;;;;17.67;11.95;;;;;;;;;;5008135;28;20040;-75
2023/08/23 08:24:32;;;;;;;19.67;13.35;;;;;;;;;;5011722;28;20088;-75
2023/08/23 08:26:58;;;;;;;20.42;12.43;;;;;;;;;;4996013;28;20092;-73
2023/08/23 08:29:24;;;;;;;22.08;12.23;;;;;;;;;;5010245;28;20048;-75
2023/08/23 08:31:50;;;;;;;19.92;12.38;;;;;;;;;;4994307;28;20184;-74
2023/08/23 08:34:18;;;;;;;22.55;11.25;;;;;;;;;;5012145;28;20030;-75
2023/08/23 08:36:45;;;;;;;17.75;11.80;;;;;;;;;;4976485;28;20517;-75
2023/08/23 08:39:11;;;;;;;18.38;12.27;;;;;;;;;;4994192;28;20026;-75
2023/08/23 08:41:37;;;;;;;19.38;12.95;;;;;;;;;;4997435;28;20491;-75
2023/08/23 08:44:11;;;;;;;16.42;10.50;;;;;;;;;;4995671;28;20033;-75
2023/08/23 08:46:37;;;;;;;17.48;10.38;;;;;;;;;;4993436;28;20555;-75
2023/08/23 08:49:03;;;;;;;28.33;12.23;;;;;;;;;;4986150;28;20018;-74
2023/08/23 08:51:30;;;;;;;20.35;10.90;;;;;;;;;;4998956;28;20058;-75
2023/08/23 08:53:58;;;;;;;19.58;10.95;;;;;;;;;;4999097;28;20436;-74
2023/08/23 08:56:24;;;;;;;19.77;11.23;;;;;;;;;;4998803;28;20053;-75
2023/08/23 08:58:50;;;;;;;17.35;11.35;;;;;;;;;;4997620;28;20129;-74
2023/08/23 09:01:17;;;;;;;20.45;11.32;;;;;;;;;;4994816;28;20030;-75
2023/08/23 09:03:43;;;;;;;20.30;10.98;;;;;;;;;;4992439;28;20053;-75
2023/08/23 09:06:28;;;;;;;18.30;11.60;;;;;;;;;;4992872;28;20074;-75
2023/08/23 09:08:55;;;;;;;30.25;11.02;;;;;;;;;;4993429;28;20037;-76
2023/08/23 09:11:21;;;;;;;14.73;11.43;;;;;;;;;;4993353;28;20073;-76
2023/08/23 09:13:48;;;;;;;23.42;12.50;;;;;;;;;;4993745;28;20107;-76
2023/08/23 09:16:14;;;;;;;24.33;12.00;;;;;;;;;;4991184;28;20038;-74
2023/08/23 09:18:45;;;;;;;15.60;12.05;;;;;;;;;;4993442;28;20033;-76
2023/08/23 09:21:12;;;;;;;23.08;12.10;;;;;;;;;;4979818;28;20117;-75
2023/08/23 09:23:38;;;;;;;15.52;10.70;;;;;;;;;;4991436;28;20060;-74
2023/08/23 09:26:06;;;;;;;15.70;11.77;;;;;;;;;;4993030;28;20053;-75
2023/08/23 09:28:32;;;;;;;18.95;11.13;;;;;;;;;;4992426;28;20042;-75
2023/08/23 09:30:58;;;;;;;15.75;11.60;;;;;;;;;;4992762;28;20029;-75
2023/08/23 09:33:25;;;;;;;17.40;11.38;;;;;;;;;;4989754;28;20072;-77
2023/08/23 09:35:51;;;;;;;18.25;12.50;;;;;;;;;;4978756;28;20058;-72
2023/08/23 09:38:18;;;;;;;19.92;12.55;;;;;;;;;;4990359;28;20034;-75
2023/08/23 09:40:45;;;;;;;16.58;13.00;;;;;;;;;;4965027;28;20120;-73
2023/08/23 09:43:12;;;;;;;15.30;10.77;;;;;;;;;;4980074;28;20100;-76
2023/08/23 09:45:38;;;;;;;14.15;10.88;;;;;;;;;;4993181;28;20085;-74
2023/08/23 09:48:06;;;;;;;23.15;10.95;;;;;;;;;;4992144;28;20365;-74
2023/08/23 09:50:32;;;;;;;18.60;11.32;;;;;;;;;;4996660;28;20513;-75
2023/08/23 09:53:01;;;;;;;17.67;11.07;;;;;;;;;;4997113;28;20038;-75
2023/08/23 09:55:27;;;;;;;20.08;11.50;;;;;;;;;;4993564;28;20044;-75
2023/08/23 09:57:54;;;;;;;19.13;11.50;;;;;;;;;;5012867;28;20107;-76
2023/08/23 10:00:21;;;;;;;19.05;10.75;;;;;;;;;;4994791;28;20034;-75
2023/08/23 10:02:47;;;;;;;20.23;12.23;;;;;;;;;;5012827;28;20030;-74
2023/08/23 10:05:14;;;;;;;18.80;10.40;;;;;;;;;;4996284;28;20093;-74
2023/08/23 10:07:41;;;;;;;18.33;10.45;;;;;;;;;;5011545;28;20112;-75
2023/08/23 10:10:08;;;;;;;20.25;10.90;;;;;;;;;;4994110;28;20030;-76
2023/08/23 10:12:36;;;;;;;21.60;12.27;;;;;;;;;;5002691;28;20030;-75
2023/08/23 10:15:03;;;;;;;21.35;11.68;;;;;;;;;;5011233;28;20124;-76
2023/08/23 10:17:30;;;;;;;19.40;11.57;;;;;;;;;;5018528;28;20098;-75
2023/08/23 10:19:57;;;;;;;17.75;10.73;;;;;;;;;;5020439;28;20034;-75
2023/08/23 10:22:24;;;;;;;17.13;9.73;;;;;;;;;;5016413;28;20411;-74
2023/08/23 10:24:50;;;;;;;19.58;10.23;;;;;;;;;;4993962;28;20388;-75
2023/08/23 10:27:18;;;;;;;19.65;9.48;;;;;;;;;;5011031;28;20054;-75
2023/08/23 10:29:50;;;;;;;17.95;8.65;;;;;;;;;;5012141;28;20117;-76
2023/08/23 10:32:17;;;;;;;16.65;8.80;;;;;;;;;;4993927;28;20074;-74
2023/08/23 10:34:43;;;;;;;14.27;7.00;;;;;;;;;;4993892;28;20112;-74
2023/08/23 10:37:27;;;;;;;15.38;6.63;;;;;;;;;;4989452;28;20107;-75
2023/08/23 10:39:54;;;;;;;12.77;6.63;;;;;;;;;;5011843;28;20045;-75
2023/08/23 10:42:22;;;;;;;13.57;7.78;;;;;;;;;;5011566;28;20148;-75
2023/08/23 10:44:58;;;;;;;17.52;7.15;;;;;;;;;;4993500;28;20129;-75
2023/08/23 10:47:24;;;;;;;9.52;5.82;;;;;;;;;;4992141;28;20029;-74
2023/08/23 10:49:51;;;;;;;14.20;5.55;;;;;;;;;;5002388;28;20115;-74
2023/08/23 10:52:17;;;;;;;8.05;5.18;;;;;;;;;;5011867;28;20050;-75
2023/08/23 10:54:43;;;;;;;10.90;4.50;;;;;;;;;;5016541;28;20558;-76
2023/08/23 10:57:10;;;;;;;11.40;3.78;;;;;;;;;;4999087;28;20125;-76
2023/08/23 10:59:36;;;;;;;12.20;5.32;;;;;;;;;;5015975;28;20041;-75
2023/08/23 11:02:03;;;;;;;8.13;4.63;;;;;;;;;;5015619;28;20464;-75
2023/08/23 11:04:30;;;;;;;13.40;4.57;;;;;;;;;;4993582;28;20081;-75
2023/08/23 11:06:56;;;;;;;7.22;3.90;;;;;;;;;;5009779;28;20090;-75
2023/08/23 11:09:23;;;;;;;9.07;2.70;;;;;;;;;;5011328;28;20038;-73
2023/08/23 11:11:49;;;;;;;6.40;2.97;;;;;;;;;;5008523;28;20084;-75
2023/08/23 11:14:15;;;;;;;10.23;3.55;;;;;;;;;;5010430;28;20104;-74
2023/08/23 11:16:42;;;;;;;10.60;3.38;;;;;;;;;;5010042;28;20293;-73
2023/08/23 11:19:08;;;;;;;8.20;2.92;;;;;;;;;;5009816;28;20556;-75
2023/08/23 11:21:36;;;;;;;10.93;3.53;;;;;;;;;;5012021;28;20034;-75
2023/08/23 11:24:06;;;;;;;9.85;3.70;;;;;;;;;;5009886;28;20458;-74
2023/08/23 11:26:35;;;;;;;10.27;3.35;;;;;;;;;;5010056;28;20543;-75
2023/08/23 11:29:01;;;;;;;8.80;3.47;;;;;;;;;;4994566;28;20030;-75
2023/08/23 11:31:29;;;;;;;11.10;2.92;;;;;;;;;;5010480;28;20312;-77
2023/08/23 11:33:57;;;;;;;10.10;3.60;;;;;;;;;;5013933;28;20110;-74
2023/08/23 11:36:23;;;;;;;9.07;3.20;;;;;;;;;;5001054;28;20041;-78
2023/08/23 11:38:50;;;;;;;11.00;2.60;;;;;;;;;;5001551;28;20038;-77
2023/08/23 11:41:28;;;;;;;7.00;2.42;;;;;;;;;;5012821;28;20093;-76
2023/08/23 11:43:54;;;;;;;8.38;2.40;;;;;;;;;;5009102;28;20026;-76
2023/08/23 11:46:20;;;;;;;7.30;2.63;;;;;;;;;;5011382;28;20247;-77
2023/08/23 11:48:47;;;;;;;10.85;3.13;;;;;;;;;;4993533;28;20491;-75
2023/08/23 11:51:13;;;;;;;8.00;2.40;;;;;;;;;;5010428;28;20133;-74
2023/08/23 11:54:08;;;;;;;11.18;2.30;;;;;;;;;;4979601;28;20066;-75
2023/08/23 11:56:34;;;;;;;8.00;2.55;;;;;;;;;;4990124;28;20045;-75
2023/08/23 11:59:01;;;;;;;6.38;2.97;;;;;;;;;;5011416;28;20054;-75
2023/08/23 12:01:27;;;;;;;5.45;2.90;;;;;;;;;;5010563;28;20034;-75
2023/08/23 12:03:54;;;;;;;10.70;4.88;;;;;;;;;;4994946;28;20099;-75
2023/08/23 12:06:20;;;;;;;8.05;3.70;;;;;;;;;;4994650;28;20097;-75
2023/08/23 12:08:46;;;;;;;8.60;3.30;;;;;;;;;;5012029;28;20026;-76
2023/08/23 12:11:13;;;;;;;8.80;2.67;;;;;;;;;;5006223;28;20061;-76
2023/08/23 12:13:41;;;;;;;8.35;3.08;;;;;;;;;;5019561;28;20045;-76
2023/08/23 12:16:10;;;;;;;7.25;2.70;;;;;;;;;;5003242;28;20041;-76
2023/08/23 12:18:37;;;;;;;9.15;3.42;;;;;;;;;;5000876;28;20041;-75
2023/08/23 12:21:04;;;;;;;9.95;3.90;;;;;;;;;;5014098;28;20026;-75
2023/08/23 12:23:30;;;;;;;6.47;4.07;;;;;;;;;;5012112;28;20038;-75
2023/08/23 12:25:57;;;;;;;7.72;4.25;;;;;;;;;;4996522;28;20030;-75
2023/08/23 12:28:23;;;;;;;13.27;5.43;;;;;;;;;;4996199;28;20034;-75
2023/08/23 12:30:49;;;;;;;10.77;5.70;;;;;;;;;;5013221;28;20053;-74
2023/08/23 12:33:15;;;;;;;13.05;6.80;;;;;;;;;;5006428;28;20042;-74
2023/08/23 12:35:42;;;;;;;12.07;7.60;;;;;;;;;;4994103;28;20050;-74
2023/08/23 12:38:09;;;;;;;15.38;6.95;;;;;;;;;;4993925;28;20027;-76
2023/08/23 12:40:36;;;;;;;14.45;7.95;;;;;;;;;;4977117;28;20030;-74
2023/08/23 12:43:03;;;;;;;15.88;9.82;;;;;;;;;;4999472;28;20125;-75
2023/08/23 12:45:29;;;;;;;17.80;9.18;;;;;;;;;;4986740;28;20054;-75
2023/08/23 12:47:56;;;;;;;12.18;7.05;;;;;;;;;;4980053;28;20173;-75
2023/08/23 12:50:41;;;;;;;15.43;6.30;;;;;;;;;;4985156;28;20042;-76
2023/08/23 12:53:07;;;;;;;10.80;6.40;;;;;;;;;;4989986;28;20121;-74
2023/08/23 12:55:33;;;;;;;13.90;6.20;;;;;;;;;;5019006;28;20030;-74
2023/08/23 12:57:59;;;;;;;10.15;4.90;;;;;;;;;;4997312;28;20042;-75
2023/08/23 13:00:25;;;;;;;11.63;4.80;;;;;;;;;;5013559;28;20141;-76
2023/08/23 13:02:52;;;;;;;11.50;5.38;;;;;;;;;;4995795;28;20057;-75
2023/08/23 13:05:18;;;;;;;13.75;6.43;;;;;;;;;;4968744;28;20447;-74
2023/08/23 13:07:44;;;;;;;9.52;6.88;;;;;;;;;;4969199;28;20061;-74
2023/08/23 13:10:10;;;;;;;10.45;5.57;;;;;;;;;;5013119;28;20340;-75
2023/08/23 13:12:36;;;;;;;11.00;6.10;;;;;;;;;;4991476;28;20094;-74
2023/08/23 13:15:02;;;;;;;11.43;4.93;;;;;;;;;;5005398;28;20030;-75
2023/08/23 13:17:29;;;;;;;7.20;3.95;;;;;;;;;;5011689;28;20049;-75
2023/08/23 13:19:55;;;;;;;12.13;4.07;;;;;;;;;;5012686;28;20109;-73
2023/08/23 13:22:22;;;;;;;7.60;3.60;;;;;;;;;;4985885;28;20074;-74
2023/08/23 13:24:49;;;;;;;9.32;3.33;;;;;;;;;;5012725;28;20037;-75
2023/08/23 13:27:15;;;;;;;6.28;2.85;;;;;;;;;;5021403;28;20033;-76
2023/08/23 13:29:44;;;;;;;5.15;2.28;;;;;;;;;;5021353;28;20097;-75
2023/08/23 13:32:11;;;;;;;7.30;2.17;;;;;;;;;;5018988;28;20044;-75
2023/08/23 13:34:38;;;;;;;7.47;2.33;;;;;;;;;;5013204;28;20045;-75
2023/08/23 13:37:05;;;;;;;7.07;2.05;;;;;;;;;;5013065;28;20033;-75
2023/08/23 13:39:31;;;;;;;6.93;1.70;;;;;;;;;;4995378;28;20038;-75
2023/08/23 13:41:59;;;;;;;6.90;2.95;;;;;;;;;;5012797;28;20038;-75
2023/08/23 13:44:26;;;;;;;8.30;2.00;;;;;;;;;;5003080;28;20441;-75
2023/08/23 13:46:52;;;;;;;7.93;2.42;;;;;;;;;;5012337;28;20026;-73
2023/08/23 13:49:18;;;;;;;9.25;2.28;;;;;;;;;;5012181;28;20117;-74
2023/08/23 13:51:44;;;;;;;5.57;1.85;;;;;;;;;;5012372;28;20041;-75
2023/08/23 13:54:10;;;;;;;9.65;2.15;;;;;;;;;;5007881;28;20048;-76
2023/08/23 13:56:37;;;;;;;6.88;2.53;;;;;;;;;;5009546;28;20057;-75
2023/08/23 13:59:03;;;;;;;6.85;2.40;;;;;;;;;;4992392;28;20034;-76
2023/08/23 14:01:29;;;;;;;7.70;2.05;;;;;;;;;;4993730;28;20112;-76
2023/08/23 14:03:55;;;;;;;5.93;2.28;;;;;;;;;;5010118;28;20058;-75
2023/08/23 14:06:21;;;;;;;8.40;1.95;;;;;;;;;;5019622;28;20060;-75
2023/08/23 14:08:47;;;;;;;5.72;2.20;;;;;;;;;;4996587;28;20073;-75
2023/08/23 14:11:13;;;;;;;6.75;2.60;;;;;;;;;;5013459;28;20041;-75
2023/08/23 14:13:39;;;;;;;10.25;2.28;;;;;;;;;;4988582;28;20038;-75
2023/08/23 14:16:10;;;;;;;8.23;2.00;;;;;;;;;;5009946;28;20041;-76
2023/08/23 14:18:37;;;;;;;5.35;1.85;;;;;;;;;;4993585;28;20060;-76
2023/08/23 14:21:04;;;;;;;6.93;1.92;;;;;;;;;;4990829;28;20348;-74
2023/08/23 14:23:31;;;;;;;10.70;2.05;;;;;;;;;;4994608;28;20125;-75